sensor_id;sensor_type;location;lat;lon;timestamp;P1;durP1;ratioP1;P2;durP2;ratioP2
20695;SDS011;10507;52.754;13.040;2022-08-04T00:01:15;7.05;;;4.88;;
20695;SDS011;10507;52.754;13.040;2022-08-04T00:03:51;6.15;;;4.80;;
20695;SDS011;10507;52.754;13.040;2022-08-04T00:06:24;7.40;;;4.85;;
20695;SDS011;10507;52.754;13.040;2022-08-04T00:09:01;8.90;;;5.05;;
20695;SDS011;10507;52.754;13.040;2022-08-04T00:11:34;7.05;;;5.28;;
20695;SDS011;10507;52.754;13.040;2022-08-04T00:14:06;7.28;;;5.45;;
20695;SDS011;10507;52.754;13.040;2022-08-04T00:16:40;12.75;;;6.15;;
20695;SDS011;10507;52.754;13.040;2022-08-04T00:19:10;8.95;;;5.55;;
20695;SDS011;10507;52.754;13.040;2022-08-04T00:21:45;7.25;;;5.45;;
20695;SDS011;10507;52.754;13.040;2022-08-04T00:24:15;7.40;;;5.13;;
20695;SDS011;10507;52.754;13.040;2022-08-04T00:26:42;6.50;;;5.53;;
20695;SDS011;10507;52.754;13.040;2022-08-04T00:29:10;6.38;;;5.03;;
20695;SDS011;10507;52.754;13.040;2022-08-04T00:31:39;9.68;;;5.60;;
20695;SDS011;10507;52.754;13.040;2022-08-04T00:34:24;6.40;;;4.93;;
20695;SDS011;10507;52.754;13.040;2022-08-04T00:36:53;8.75;;;4.95;;
20695;SDS011;10507;52.754;13.040;2022-08-04T00:39:22;7.95;;;6.13;;
20695;SDS011;10507;52.754;13.040;2022-08-04T00:41:52;8.10;;;5.00;;
20695;SDS011;10507;52.754;13.040;2022-08-04T00:44:37;6.05;;;5.30;;
20695;SDS011;10507;52.754;13.040;2022-08-04T00:47:18;7.30;;;5.85;;
20695;SDS011;10507;52.754;13.040;2022-08-04T00:50:04;8.20;;;5.65;;
20695;SDS011;10507;52.754;13.040;2022-08-04T00:52:42;7.13;;;5.50;;
20695;SDS011;10507;52.754;13.040;2022-08-04T00:55:22;7.93;;;5.93;;
20695;SDS011;10507;52.754;13.040;2022-08-04T00:58:07;8.18;;;6.00;;
20695;SDS011;10507;52.754;13.040;2022-08-04T01:00:59;7.88;;;5.88;;
20695;SDS011;10507;52.754;13.040;2022-08-04T01:03:32;8.93;;;5.63;;
20695;SDS011;10507;52.754;13.040;2022-08-04T01:06:21;7.30;;;6.07;;
20695;SDS011;10507;52.754;13.040;2022-08-04T01:09:00;6.38;;;5.28;;
20695;SDS011;10507;52.754;13.040;2022-08-04T01:11:42;6.53;;;5.28;;
20695;SDS011;10507;52.754;13.040;2022-08-04T01:14:30;9.25;;;5.80;;
20695;SDS011;10507;52.754;13.040;2022-08-04T01:17:14;7.53;;;5.97;;
20695;SDS011;10507;52.754;13.040;2022-08-04T01:19:58;8.77;;;5.85;;
20695;SDS011;10507;52.754;13.040;2022-08-04T01:29:11;8.60;;;5.63;;
20695;SDS011;10507;52.754;13.040;2022-08-04T01:31:45;8.07;;;6.05;;
20695;SDS011;10507;52.754;13.040;2022-08-04T01:34:22;9.52;;;5.70;;
20695;SDS011;10507;52.754;13.040;2022-08-04T01:36:55;7.00;;;5.50;;
20695;SDS011;10507;52.754;13.040;2022-08-04T01:39:29;7.82;;;5.70;;
20695;SDS011;10507;52.754;13.040;2022-08-04T01:42:08;6.82;;;5.68;;
20695;SDS011;10507;52.754;13.040;2022-08-04T01:44:49;7.22;;;5.90;;
20695;SDS011;10507;52.754;13.040;2022-08-04T01:47:19;8.45;;;5.78;;
20695;SDS011;10507;52.754;13.040;2022-08-04T01:49:48;6.50;;;5.10;;
20695;SDS011;10507;52.754;13.040;2022-08-04T01:52:17;7.07;;;6.38;;
20695;SDS011;10507;52.754;13.040;2022-08-04T01:54:45;7.47;;;5.35;;
20695;SDS011;10507;52.754;13.040;2022-08-04T01:57:15;7.70;;;5.30;;
20695;SDS011;10507;52.754;13.040;2022-08-04T02:00:06;7.60;;;5.47;;
20695;SDS011;10507;52.754;13.040;2022-08-04T02:02:35;6.75;;;6.03;;
20695;SDS011;10507;52.754;13.040;2022-08-04T02:05:03;10.20;;;5.75;;
20695;SDS011;10507;52.754;13.040;2022-08-04T02:07:35;6.22;;;5.63;;
20695;SDS011;10507;52.754;13.040;2022-08-04T02:10:12;6.57;;;5.40;;
20695;SDS011;10507;52.754;13.040;2022-08-04T02:12:52;7.28;;;6.00;;
20695;SDS011;10507;52.754;13.040;2022-08-04T02:15:29;6.90;;;5.65;;
20695;SDS011;10507;52.754;13.040;2022-08-04T02:18:06;8.75;;;6.15;;
20695;SDS011;10507;52.754;13.040;2022-08-04T02:20:42;8.80;;;5.75;;
20695;SDS011;10507;52.754;13.040;2022-08-04T02:23:13;6.97;;;5.80;;
20695;SDS011;10507;52.754;13.040;2022-08-04T02:25:43;6.35;;;5.75;;
20695;SDS011;10507;52.754;13.040;2022-08-04T02:28:20;7.20;;;6.15;;
20695;SDS011;10507;52.754;13.040;2022-08-04T02:31:02;6.78;;;5.50;;
20695;SDS011;10507;52.754;13.040;2022-08-04T02:33:35;7.50;;;5.95;;
20695;SDS011;10507;52.754;13.040;2022-08-04T02:36:05;6.85;;;6.15;;
20695;SDS011;10507;52.754;13.040;2022-08-04T02:38:41;6.90;;;5.60;;
20695;SDS011;10507;52.754;13.040;2022-08-04T02:41:20;7.50;;;6.80;;
20695;SDS011;10507;52.754;13.040;2022-08-04T02:43:50;6.95;;;6.25;;
20695;SDS011;10507;52.754;13.040;2022-08-04T02:46:23;6.82;;;6.22;;
20695;SDS011;10507;52.754;13.040;2022-08-04T02:48:51;8.68;;;6.47;;
20695;SDS011;10507;52.754;13.040;2022-08-04T02:51:24;7.07;;;6.15;;
20695;SDS011;10507;52.754;13.040;2022-08-04T02:53:55;7.15;;;5.97;;
20695;SDS011;10507;52.754;13.040;2022-08-04T02:56:27;7.28;;;6.03;;
20695;SDS011;10507;52.754;13.040;2022-08-04T02:58:57;7.47;;;6.53;;
20695;SDS011;10507;52.754;13.040;2022-08-04T03:01:27;7.55;;;5.40;;
20695;SDS011;10507;52.754;13.040;2022-08-04T03:03:59;7.60;;;5.53;;
20695;SDS011;10507;52.754;13.040;2022-08-04T03:06:53;10.20;;;6.10;;
20695;SDS011;10507;52.754;13.040;2022-08-04T03:09:53;6.65;;;5.75;;
20695;SDS011;10507;52.754;13.040;2022-08-04T03:12:56;6.55;;;5.70;;
20695;SDS011;10507;52.754;13.040;2022-08-04T03:15:52;7.53;;;6.15;;
20695;SDS011;10507;52.754;13.040;2022-08-04T03:18:41;8.30;;;6.70;;
20695;SDS011;10507;52.754;13.040;2022-08-04T03:24:49;7.93;;;5.97;;
20695;SDS011;10507;52.754;13.040;2022-08-04T03:30:54;9.00;;;6.00;;
20695;SDS011;10507;52.754;13.040;2022-08-04T03:33:50;6.63;;;5.80;;
20695;SDS011;10507;52.754;13.040;2022-08-04T03:36:55;6.72;;;5.93;;
20695;SDS011;10507;52.754;13.040;2022-08-04T03:39:40;6.72;;;5.93;;
20695;SDS011;10507;52.754;13.040;2022-08-04T03:42:33;7.53;;;6.30;;
20695;SDS011;10507;52.754;13.040;2022-08-04T03:45:17;8.57;;;6.47;;
20695;SDS011;10507;52.754;13.040;2022-08-04T03:51:11;7.78;;;6.65;;
20695;SDS011;10507;52.754;13.040;2022-08-04T04:01:02;8.10;;;6.72;;
20695;SDS011;10507;52.754;13.040;2022-08-04T04:03:53;8.95;;;7.20;;
20695;SDS011;10507;52.754;13.040;2022-08-04T04:06:40;9.93;;;6.85;;
20695;SDS011;10507;52.754;13.040;2022-08-04T04:09:39;8.73;;;7.32;;
20695;SDS011;10507;52.754;13.040;2022-08-04T04:12:44;6.60;;;5.93;;
20695;SDS011;10507;52.754;13.040;2022-08-04T04:15:37;7.32;;;6.55;;
20695;SDS011;10507;52.754;13.040;2022-08-04T04:18:24;7.03;;;6.15;;
20695;SDS011;10507;52.754;13.040;2022-08-04T04:21:26;8.25;;;6.30;;
20695;SDS011;10507;52.754;13.040;2022-08-04T04:27:17;9.52;;;6.90;;
20695;SDS011;10507;52.754;13.040;2022-08-04T04:29:59;10.65;;;8.10;;
20695;SDS011;10507;52.754;13.040;2022-08-04T04:35:36;12.77;;;7.90;;
20695;SDS011;10507;52.754;13.040;2022-08-04T04:41:20;14.25;;;8.40;;
20695;SDS011;10507;52.754;13.040;2022-08-04T04:44:14;12.35;;;8.80;;
20695;SDS011;10507;52.754;13.040;2022-08-04T04:47:10;11.48;;;8.00;;
20695;SDS011;10507;52.754;13.040;2022-08-04T04:50:07;14.73;;;9.57;;
20695;SDS011;10507;52.754;13.040;2022-08-04T04:52:42;14.60;;;9.48;;
20695;SDS011;10507;52.754;13.040;2022-08-04T04:55:16;11.57;;;7.78;;
20695;SDS011;10507;52.754;13.040;2022-08-04T04:57:50;11.75;;;7.35;;
20695;SDS011;10507;52.754;13.040;2022-08-04T05:00:21;7.68;;;5.80;;
20695;SDS011;10507;52.754;13.040;2022-08-04T05:03:02;7.07;;;5.88;;
20695;SDS011;10507;52.754;13.040;2022-08-04T05:05:50;9.10;;;5.63;;
20695;SDS011;10507;52.754;13.040;2022-08-04T05:11:37;8.32;;;5.72;;
20695;SDS011;10507;52.754;13.040;2022-08-04T05:14:23;6.80;;;4.95;;
20695;SDS011;10507;52.754;13.040;2022-08-04T05:17:09;9.32;;;5.63;;
20695;SDS011;10507;52.754;13.040;2022-08-04T05:19:44;6.65;;;4.90;;
20695;SDS011;10507;52.754;13.040;2022-08-04T05:22:20;7.80;;;5.82;;
20695;SDS011;10507;52.754;13.040;2022-08-04T05:24:53;7.28;;;5.70;;
20695;SDS011;10507;52.754;13.040;2022-08-04T05:27:28;9.25;;;6.05;;
20695;SDS011;10507;52.754;13.040;2022-08-04T05:30:07;11.57;;;6.68;;
20695;SDS011;10507;52.754;13.040;2022-08-04T05:32:42;11.23;;;7.43;;
20695;SDS011;10507;52.754;13.040;2022-08-04T05:35:21;8.13;;;5.90;;
20695;SDS011;10507;52.754;13.040;2022-08-04T05:38:15;10.50;;;7.35;;
20695;SDS011;10507;52.754;13.040;2022-08-04T05:40:46;9.88;;;6.03;;
20695;SDS011;10507;52.754;13.040;2022-08-04T05:43:15;11.10;;;6.43;;
20695;SDS011;10507;52.754;13.040;2022-08-04T05:45:47;13.93;;;7.00;;
20695;SDS011;10507;52.754;13.040;2022-08-04T05:48:17;12.15;;;7.60;;
20695;SDS011;10507;52.754;13.040;2022-08-04T05:50:45;15.13;;;8.20;;
20695;SDS011;10507;52.754;13.040;2022-08-04T05:53:13;13.82;;;8.50;;
20695;SDS011;10507;52.754;13.040;2022-08-04T05:55:43;15.95;;;8.90;;
20695;SDS011;10507;52.754;13.040;2022-08-04T05:58:24;15.25;;;9.13;;
20695;SDS011;10507;52.754;13.040;2022-08-04T06:00:57;16.58;;;8.55;;
20695;SDS011;10507;52.754;13.040;2022-08-04T06:03:28;15.10;;;8.02;;
20695;SDS011;10507;52.754;13.040;2022-08-04T06:05:56;13.45;;;8.20;;
20695;SDS011;10507;52.754;13.040;2022-08-04T06:08:26;16.90;;;8.00;;
20695;SDS011;10507;52.754;13.040;2022-08-04T06:10:56;15.05;;;7.80;;
20695;SDS011;10507;52.754;13.040;2022-08-04T06:13:28;13.82;;;6.50;;
20695;SDS011;10507;52.754;13.040;2022-08-04T06:16:17;13.90;;;6.43;;
20695;SDS011;10507;52.754;13.040;2022-08-04T06:18:56;12.43;;;6.22;;
20695;SDS011;10507;52.754;13.040;2022-08-04T06:21:48;8.15;;;5.70;;
20695;SDS011;10507;52.754;13.040;2022-08-04T06:24:17;11.60;;;5.20;;
20695;SDS011;10507;52.754;13.040;2022-08-04T06:26:48;8.63;;;5.75;;
20695;SDS011;10507;52.754;13.040;2022-08-04T06:29:18;11.85;;;6.60;;
20695;SDS011;10507;52.754;13.040;2022-08-04T06:31:53;10.13;;;5.35;;
20695;SDS011;10507;52.754;13.040;2022-08-04T06:34:47;8.52;;;5.00;;
20695;SDS011;10507;52.754;13.040;2022-08-04T06:37:16;8.73;;;5.13;;
20695;SDS011;10507;52.754;13.040;2022-08-04T06:40:05;11.23;;;5.30;;
20695;SDS011;10507;52.754;13.040;2022-08-04T06:42:58;8.50;;;4.30;;
20695;SDS011;10507;52.754;13.040;2022-08-04T06:45:34;7.30;;;5.00;;
20695;SDS011;10507;52.754;13.040;2022-08-04T06:48:10;9.00;;;4.78;;
20695;SDS011;10507;52.754;13.040;2022-08-04T06:50:42;7.20;;;4.30;;
20695;SDS011;10507;52.754;13.040;2022-08-04T06:53:34;7.95;;;4.35;;
20695;SDS011;10507;52.754;13.040;2022-08-04T06:56:02;8.30;;;4.30;;
20695;SDS011;10507;52.754;13.040;2022-08-04T06:58:32;7.57;;;4.28;;
20695;SDS011;10507;52.754;13.040;2022-08-04T07:01:04;6.10;;;4.25;;
20695;SDS011;10507;52.754;13.040;2022-08-04T07:03:36;5.95;;;3.80;;
20695;SDS011;10507;52.754;13.040;2022-08-04T07:06:07;4.57;;;3.72;;
20695;SDS011;10507;52.754;13.040;2022-08-04T07:08:41;6.57;;;3.88;;
20695;SDS011;10507;52.754;13.040;2022-08-04T07:11:11;7.13;;;3.45;;
20695;SDS011;10507;52.754;13.040;2022-08-04T07:13:41;9.50;;;4.95;;
20695;SDS011;10507;52.754;13.040;2022-08-04T07:16:12;7.57;;;3.75;;
20695;SDS011;10507;52.754;13.040;2022-08-04T07:18:42;5.78;;;3.10;;
20695;SDS011;10507;52.754;13.040;2022-08-04T07:21:10;5.95;;;3.42;;
20695;SDS011;10507;52.754;13.040;2022-08-04T07:23:44;4.38;;;3.28;;
20695;SDS011;10507;52.754;13.040;2022-08-04T07:26:12;7.93;;;3.63;;
20695;SDS011;10507;52.754;13.040;2022-08-04T07:28:46;5.20;;;3.15;;
20695;SDS011;10507;52.754;13.040;2022-08-04T07:31:16;3.85;;;2.97;;
20695;SDS011;10507;52.754;13.040;2022-08-04T07:34:02;7.65;;;2.90;;
20695;SDS011;10507;52.754;13.040;2022-08-04T07:36:47;2.78;;;2.42;;
20695;SDS011;10507;52.754;13.040;2022-08-04T07:39:21;3.38;;;2.47;;
20695;SDS011;10507;52.754;13.040;2022-08-04T07:41:54;5.68;;;2.78;;
20695;SDS011;10507;52.754;13.040;2022-08-04T07:44:29;4.78;;;2.92;;
20695;SDS011;10507;52.754;13.040;2022-08-04T07:46:59;4.78;;;2.60;;
20695;SDS011;10507;52.754;13.040;2022-08-04T07:49:29;4.05;;;3.00;;
20695;SDS011;10507;52.754;13.040;2022-08-04T07:52:17;10.73;;;3.35;;
20695;SDS011;10507;52.754;13.040;2022-08-04T07:54:46;4.32;;;2.38;;
20695;SDS011;10507;52.754;13.040;2022-08-04T07:57:16;7.43;;;3.17;;
20695;SDS011;10507;52.754;13.040;2022-08-04T08:00:06;4.57;;;2.42;;
20695;SDS011;10507;52.754;13.040;2022-08-04T08:02:35;7.05;;;2.53;;
20695;SDS011;10507;52.754;13.040;2022-08-04T08:05:06;3.33;;;2.50;;
20695;SDS011;10507;52.754;13.040;2022-08-04T08:07:40;4.47;;;2.30;;
20695;SDS011;10507;52.754;13.040;2022-08-04T08:10:23;5.15;;;2.15;;
20695;SDS011;10507;52.754;13.040;2022-08-04T08:12:52;4.00;;;2.50;;
20695;SDS011;10507;52.754;13.040;2022-08-04T08:15:20;4.90;;;2.92;;
20695;SDS011;10507;52.754;13.040;2022-08-04T08:17:49;3.90;;;2.33;;
20695;SDS011;10507;52.754;13.040;2022-08-04T08:20:27;3.50;;;2.28;;
20695;SDS011;10507;52.754;13.040;2022-08-04T08:22:57;4.68;;;2.30;;
20695;SDS011;10507;52.754;13.040;2022-08-04T08:25:26;4.68;;;2.50;;
20695;SDS011;10507;52.754;13.040;2022-08-04T08:27:54;4.28;;;2.47;;
20695;SDS011;10507;52.754;13.040;2022-08-04T08:30:22;3.22;;;2.20;;
20695;SDS011;10507;52.754;13.040;2022-08-04T08:32:57;5.05;;;2.63;;
20695;SDS011;10507;52.754;13.040;2022-08-04T08:35:28;4.30;;;2.60;;
20695;SDS011;10507;52.754;13.040;2022-08-04T08:38:20;3.63;;;2.03;;
20695;SDS011;10507;52.754;13.040;2022-08-04T08:41:11;5.20;;;2.55;;
20695;SDS011;10507;52.754;13.040;2022-08-04T08:44:09;4.25;;;2.75;;
20695;SDS011;10507;52.754;13.040;2022-08-04T08:47:08;4.43;;;2.58;;
20695;SDS011;10507;52.754;13.040;2022-08-04T08:49:55;5.00;;;2.65;;
20695;SDS011;10507;52.754;13.040;2022-08-04T08:55:48;5.95;;;2.83;;
20695;SDS011;10507;52.754;13.040;2022-08-04T08:58:46;4.45;;;2.85;;
20695;SDS011;10507;52.754;13.040;2022-08-04T09:01:45;4.40;;;2.13;;
20695;SDS011;10507;52.754;13.040;2022-08-04T09:04:49;6.00;;;2.90;;
20695;SDS011;10507;52.754;13.040;2022-08-04T09:07:42;7.57;;;3.28;;
20695;SDS011;10507;52.754;13.040;2022-08-04T09:10:35;4.35;;;2.45;;
20695;SDS011;10507;52.754;13.040;2022-08-04T09:13:12;5.70;;;2.55;;
20695;SDS011;10507;52.754;13.040;2022-08-04T09:15:51;11.00;;;2.63;;
20695;SDS011;10507;52.754;13.040;2022-08-04T09:18:29;6.90;;;2.17;;
20695;SDS011;10507;52.754;13.040;2022-08-04T09:21:09;4.50;;;2.17;;
20695;SDS011;10507;52.754;13.040;2022-08-04T09:23:51;4.68;;;1.98;;
20695;SDS011;10507;52.754;13.040;2022-08-04T09:26:56;9.23;;;2.92;;
20695;SDS011;10507;52.754;13.040;2022-08-04T09:29:29;6.15;;;1.90;;
20695;SDS011;10507;52.754;13.040;2022-08-04T09:32:17;2.75;;;1.83;;
20695;SDS011;10507;52.754;13.040;2022-08-04T09:35:10;2.42;;;1.70;;
20695;SDS011;10507;52.754;13.040;2022-08-04T09:37:47;5.38;;;1.70;;
20695;SDS011;10507;52.754;13.040;2022-08-04T09:40:32;3.78;;;1.52;;
20695;SDS011;10507;52.754;13.040;2022-08-04T09:43:34;6.75;;;1.67;;
20695;SDS011;10507;52.754;13.040;2022-08-04T09:46:36;5.28;;;1.75;;
20695;SDS011;10507;52.754;13.040;2022-08-04T09:49:11;5.70;;;1.90;;
20695;SDS011;10507;52.754;13.040;2022-08-04T09:51:48;3.92;;;1.60;;
20695;SDS011;10507;52.754;13.040;2022-08-04T09:54:38;6.00;;;1.48;;
20695;SDS011;10507;52.754;13.040;2022-08-04T09:57:19;4.13;;;1.60;;
20695;SDS011;10507;52.754;13.040;2022-08-04T10:00:10;2.20;;;1.50;;
20695;SDS011;10507;52.754;13.040;2022-08-04T10:02:44;4.45;;;1.90;;
20695;SDS011;10507;52.754;13.040;2022-08-04T10:05:20;3.97;;;2.28;;
20695;SDS011;10507;52.754;13.040;2022-08-04T10:07:58;3.17;;;2.00;;
20695;SDS011;10507;52.754;13.040;2022-08-04T10:10:45;2.75;;;2.03;;
20695;SDS011;10507;52.754;13.040;2022-08-04T10:13:22;2.65;;;1.60;;
20695;SDS011;10507;52.754;13.040;2022-08-04T10:16:03;2.90;;;1.60;;
20695;SDS011;10507;52.754;13.040;2022-08-04T10:18:58;4.45;;;2.00;;
20695;SDS011;10507;52.754;13.040;2022-08-04T10:21:35;2.35;;;1.90;;
20695;SDS011;10507;52.754;13.040;2022-08-04T10:24:30;1.88;;;1.52;;
20695;SDS011;10507;52.754;13.040;2022-08-04T10:27:07;2.38;;;1.70;;
20695;SDS011;10507;52.754;13.040;2022-08-04T10:29:40;3.65;;;1.90;;
20695;SDS011;10507;52.754;13.040;2022-08-04T10:32:13;5.07;;;2.25;;
20695;SDS011;10507;52.754;13.040;2022-08-04T10:34:47;5.25;;;1.95;;
20695;SDS011;10507;52.754;13.040;2022-08-04T10:37:27;6.22;;;2.25;;
20695;SDS011;10507;52.754;13.040;2022-08-04T10:40:19;4.65;;;2.13;;
20695;SDS011;10507;52.754;13.040;2022-08-04T10:43:08;3.83;;;2.05;;
20695;SDS011;10507;52.754;13.040;2022-08-04T10:45:50;6.00;;;1.95;;
20695;SDS011;10507;52.754;13.040;2022-08-04T10:48:28;2.63;;;1.90;;
20695;SDS011;10507;52.754;13.040;2022-08-04T10:51:08;2.85;;;1.88;;
20695;SDS011;10507;52.754;13.040;2022-08-04T10:53:45;2.05;;;1.75;;
20695;SDS011;10507;52.754;13.040;2022-08-04T10:56:21;2.25;;;1.60;;
20695;SDS011;10507;52.754;13.040;2022-08-04T10:58:59;3.58;;;1.95;;
20695;SDS011;10507;52.754;13.040;2022-08-04T11:01:31;5.93;;;1.95;;
20695;SDS011;10507;52.754;13.040;2022-08-04T11:04:28;6.05;;;2.00;;
20695;SDS011;10507;52.754;13.040;2022-08-04T11:07:04;4.03;;;2.13;;
20695;SDS011;10507;52.754;13.040;2022-08-04T11:09:32;4.32;;;2.17;;
20695;SDS011;10507;52.754;13.040;2022-08-04T11:12:02;2.85;;;2.08;;
20695;SDS011;10507;52.754;13.040;2022-08-04T11:14:35;3.95;;;2.10;;
20695;SDS011;10507;52.754;13.040;2022-08-04T11:17:07;5.07;;;2.05;;
20695;SDS011;10507;52.754;13.040;2022-08-04T11:19:45;3.15;;;1.98;;
20695;SDS011;10507;52.754;13.040;2022-08-04T11:22:22;4.75;;;2.10;;
20695;SDS011;10507;52.754;13.040;2022-08-04T11:24:52;4.95;;;1.85;;
20695;SDS011;10507;52.754;13.040;2022-08-04T11:27:28;2.50;;;2.20;;
20695;SDS011;10507;52.754;13.040;2022-08-04T11:30:04;3.80;;;1.75;;
20695;SDS011;10507;52.754;13.040;2022-08-04T11:32:35;5.53;;;2.80;;
20695;SDS011;10507;52.754;13.040;2022-08-04T11:35:12;4.38;;;2.53;;
20695;SDS011;10507;52.754;13.040;2022-08-04T11:37:49;5.38;;;3.28;;
20695;SDS011;10507;52.754;13.040;2022-08-04T11:40:28;4.25;;;3.08;;
20695;SDS011;10507;52.754;13.040;2022-08-04T11:43:03;4.63;;;3.38;;
20695;SDS011;10507;52.754;13.040;2022-08-04T11:45:37;5.82;;;3.55;;
20695;SDS011;10507;52.754;13.040;2022-08-04T11:48:09;5.30;;;3.67;;
20695;SDS011;10507;52.754;13.040;2022-08-04T11:50:42;8.27;;;4.40;;
20695;SDS011;10507;52.754;13.040;2022-08-04T11:53:19;5.65;;;4.03;;
20695;SDS011;10507;52.754;13.040;2022-08-04T11:55:50;5.70;;;4.03;;
20695;SDS011;10507;52.754;13.040;2022-08-04T11:58:36;6.70;;;4.93;;
20695;SDS011;10507;52.754;13.040;2022-08-04T12:01:07;9.57;;;5.25;;
20695;SDS011;10507;52.754;13.040;2022-08-04T12:03:45;8.23;;;5.47;;
20695;SDS011;10507;52.754;13.040;2022-08-04T12:06:31;8.15;;;5.53;;
20695;SDS011;10507;52.754;13.040;2022-08-04T12:09:09;8.25;;;6.78;;
20695;SDS011;10507;52.754;13.040;2022-08-04T12:11:55;9.05;;;6.35;;
20695;SDS011;10507;52.754;13.040;2022-08-04T12:14:30;9.05;;;7.00;;
20695;SDS011;10507;52.754;13.040;2022-08-04T12:17:06;8.93;;;7.80;;
20695;SDS011;10507;52.754;13.040;2022-08-04T12:19:36;13.75;;;8.88;;
20695;SDS011;10507;52.754;13.040;2022-08-04T12:22:31;11.82;;;7.88;;
20695;SDS011;10507;52.754;13.040;2022-08-04T12:25:07;13.98;;;6.88;;
20695;SDS011;10507;52.754;13.040;2022-08-04T12:27:39;3.67;;;2.47;;
20695;SDS011;10507;52.754;13.040;2022-08-04T12:30:15;7.40;;;2.00;;
20695;SDS011;10507;52.754;13.040;2022-08-04T12:33:05;6.28;;;2.38;;
20695;SDS011;10507;52.754;13.040;2022-08-04T12:35:44;5.35;;;2.15;;
20695;SDS011;10507;52.754;13.040;2022-08-04T12:38:39;5.35;;;2.95;;
20695;SDS011;10507;52.754;13.040;2022-08-04T12:41:13;5.53;;;3.55;;
20695;SDS011;10507;52.754;13.040;2022-08-04T12:43:47;8.15;;;4.50;;
20695;SDS011;10507;52.754;13.040;2022-08-04T12:46:18;7.13;;;4.38;;
20695;SDS011;10507;52.754;13.040;2022-08-04T12:48:48;5.95;;;4.13;;
20695;SDS011;10507;52.754;13.040;2022-08-04T12:51:16;8.05;;;6.07;;
20695;SDS011;10507;52.754;13.040;2022-08-04T12:54:07;7.78;;;6.70;;
20695;SDS011;10507;52.754;13.040;2022-08-04T12:56:38;8.43;;;5.82;;
20695;SDS011;10507;52.754;13.040;2022-08-04T12:59:07;7.18;;;3.28;;
20695;SDS011;10507;52.754;13.040;2022-08-04T13:01:38;5.93;;;2.30;;
20695;SDS011;10507;52.754;13.040;2022-08-04T13:04:33;4.40;;;2.20;;
20695;SDS011;10507;52.754;13.040;2022-08-04T13:07:17;3.78;;;2.30;;
20695;SDS011;10507;52.754;13.040;2022-08-04T13:09:48;3.58;;;2.38;;
20695;SDS011;10507;52.754;13.040;2022-08-04T13:12:18;4.75;;;2.15;;
20695;SDS011;10507;52.754;13.040;2022-08-04T13:14:59;2.55;;;2.10;;
20695;SDS011;10507;52.754;13.040;2022-08-04T13:17:48;2.72;;;2.38;;
20695;SDS011;10507;52.754;13.040;2022-08-04T13:20:26;4.80;;;2.17;;
20695;SDS011;10507;52.754;13.040;2022-08-04T13:22:59;3.10;;;2.20;;
20695;SDS011;10507;52.754;13.040;2022-08-04T13:25:36;2.85;;;2.10;;
20695;SDS011;10507;52.754;13.040;2022-08-04T13:28:29;5.55;;;2.00;;
20695;SDS011;10507;52.754;13.040;2022-08-04T13:31:00;4.18;;;2.42;;
20695;SDS011;10507;52.754;13.040;2022-08-04T13:33:33;6.15;;;2.80;;
20695;SDS011;10507;52.754;13.040;2022-08-04T13:36:02;4.05;;;2.00;;
20695;SDS011;10507;52.754;13.040;2022-08-04T13:38:34;2.95;;;1.77;;
20695;SDS011;10507;52.754;13.040;2022-08-04T13:41:07;3.38;;;1.70;;
20695;SDS011;10507;52.754;13.040;2022-08-04T13:43:39;1.95;;;1.50;;
20695;SDS011;10507;52.754;13.040;2022-08-04T13:46:30;2.70;;;1.95;;
20695;SDS011;10507;52.754;13.040;2022-08-04T13:49:01;4.15;;;2.00;;
20695;SDS011;10507;52.754;13.040;2022-08-04T13:51:57;1.90;;;1.70;;
20695;SDS011;10507;52.754;13.040;2022-08-04T13:54:34;2.03;;;1.83;;
20695;SDS011;10507;52.754;13.040;2022-08-04T13:57:11;3.15;;;1.60;;
20695;SDS011;10507;52.754;13.040;2022-08-04T13:59:44;2.33;;;1.35;;
20695;SDS011;10507;52.754;13.040;2022-08-04T14:02:22;1.98;;;1.70;;
20695;SDS011;10507;52.754;13.040;2022-08-04T14:05:00;3.30;;;1.60;;
20695;SDS011;10507;52.754;13.040;2022-08-04T14:07:44;4.30;;;2.28;;
20695;SDS011;10507;52.754;13.040;2022-08-04T14:10:13;2.05;;;1.80;;
20695;SDS011;10507;52.754;13.040;2022-08-04T14:12:44;2.92;;;1.83;;
20695;SDS011;10507;52.754;13.040;2022-08-04T14:15:29;2.63;;;2.00;;
20695;SDS011;10507;52.754;13.040;2022-08-04T14:18:20;2.28;;;1.60;;
20695;SDS011;10507;52.754;13.040;2022-08-04T14:20:57;1.92;;;1.63;;
20695;SDS011;10507;52.754;13.040;2022-08-04T14:23:27;3.85;;;2.08;;
20695;SDS011;10507;52.754;13.040;2022-08-04T14:25:58;3.80;;;2.17;;
20695;SDS011;10507;52.754;13.040;2022-08-04T14:28:28;2.25;;;1.75;;
20695;SDS011;10507;52.754;13.040;2022-08-04T14:31:17;2.40;;;1.75;;
20695;SDS011;10507;52.754;13.040;2022-08-04T14:33:47;3.08;;;1.70;;
20695;SDS011;10507;52.754;13.040;2022-08-04T14:36:38;3.97;;;1.90;;
20695;SDS011;10507;52.754;13.040;2022-08-04T14:39:36;4.25;;;2.25;;
20695;SDS011;10507;52.754;13.040;2022-08-04T14:42:06;2.03;;;1.75;;
20695;SDS011;10507;52.754;13.040;2022-08-04T14:47:38;4.70;;;1.88;;
20695;SDS011;10507;52.754;13.040;2022-08-04T14:50:18;2.67;;;1.92;;
20695;SDS011;10507;52.754;13.040;2022-08-04T14:52:48;3.90;;;1.73;;
20695;SDS011;10507;52.754;13.040;2022-08-04T14:55:16;2.97;;;2.17;;
20695;SDS011;10507;52.754;13.040;2022-08-04T14:57:46;5.70;;;2.40;;
20695;SDS011;10507;52.754;13.040;2022-08-04T15:00:36;2.97;;;2.17;;
20695;SDS011;10507;52.754;13.040;2022-08-04T15:03:05;4.70;;;1.92;;
20695;SDS011;10507;52.754;13.040;2022-08-04T15:05:35;6.43;;;2.97;;
20695;SDS011;10507;52.754;13.040;2022-08-04T15:08:25;5.43;;;1.85;;
20695;SDS011;10507;52.754;13.040;2022-08-04T15:10:56;4.90;;;2.80;;
20695;SDS011;10507;52.754;13.040;2022-08-04T15:13:28;2.00;;;1.60;;
20695;SDS011;10507;52.754;13.040;2022-08-04T15:15:58;1.80;;;1.63;;
20695;SDS011;10507;52.754;13.040;2022-08-04T15:18:32;4.22;;;2.00;;
20695;SDS011;10507;52.754;13.040;2022-08-04T15:21:02;2.78;;;1.92;;
20695;SDS011;10507;52.754;13.040;2022-08-04T15:23:30;2.38;;;1.63;;
20695;SDS011;10507;52.754;13.040;2022-08-04T15:26:05;3.67;;;2.13;;
20695;SDS011;10507;52.754;13.040;2022-08-04T15:28:37;3.78;;;2.00;;
20695;SDS011;10507;52.754;13.040;2022-08-04T15:31:08;2.28;;;1.73;;
20695;SDS011;10507;52.754;13.040;2022-08-04T15:33:57;4.07;;;2.22;;
20695;SDS011;10507;52.754;13.040;2022-08-04T15:36:27;2.78;;;1.77;;
20695;SDS011;10507;52.754;13.040;2022-08-04T15:39:03;2.92;;;1.95;;
20695;SDS011;10507;52.754;13.040;2022-08-04T15:41:41;2.05;;;1.80;;
20695;SDS011;10507;52.754;13.040;2022-08-04T15:47:25;2.65;;;1.90;;
20695;SDS011;10507;52.754;13.040;2022-08-04T15:50:03;3.38;;;1.77;;
20695;SDS011;10507;52.754;13.040;2022-08-04T15:55:38;2.35;;;1.70;;
20695;SDS011;10507;52.754;13.040;2022-08-04T15:58:09;2.58;;;1.83;;
20695;SDS011;10507;52.754;13.040;2022-08-04T16:03:46;3.58;;;2.13;;
20695;SDS011;10507;52.754;13.040;2022-08-04T16:06:41;3.63;;;2.15;;
20695;SDS011;10507;52.754;13.040;2022-08-04T16:09:19;6.63;;;1.90;;
20695;SDS011;10507;52.754;13.040;2022-08-04T16:11:49;2.97;;;2.00;;
20695;SDS011;10507;52.754;13.040;2022-08-04T16:14:21;2.05;;;1.80;;
20695;SDS011;10507;52.754;13.040;2022-08-04T16:16:57;3.92;;;1.88;;
20695;SDS011;10507;52.754;13.040;2022-08-04T16:19:48;2.95;;;1.83;;
20695;SDS011;10507;52.754;13.040;2022-08-04T16:22:31;3.03;;;2.15;;
20695;SDS011;10507;52.754;13.040;2022-08-04T16:25:01;3.22;;;1.90;;
20695;SDS011;10507;52.754;13.040;2022-08-04T16:27:36;3.50;;;1.98;;
20695;SDS011;10507;52.754;13.040;2022-08-04T16:30:06;5.70;;;2.10;;